sensor_id;sensor_type;location;lat;lon;timestamp;temperature;humidity
17381;DHT22;8808;52.478;13.378;2023-07-31T00:01:48;15.80;99.90
17381;DHT22;8808;52.478;13.378;2023-07-31T00:04:15;15.80;99.90
17381;DHT22;8808;52.478;13.378;2023-07-31T00:06:42;15.90;99.90
17381;DHT22;8808;52.478;13.378;2023-07-31T00:09:10;15.90;99.90
17381;DHT22;8808;52.478;13.378;2023-07-31T00:11:37;15.90;99.90
17381;DHT22;8808;52.478;13.378;2023-07-31T00:14:04;15.90;99.90
17381;DHT22;8808;52.478;13.378;2023-07-31T00:16:31;15.80;99.90
17381;DHT22;8808;52.478;13.378;2023-07-31T00:18:58;15.70;99.90
17381;DHT22;8808;52.478;13.378;2023-07-31T00:21:25;15.60;99.90
17381;DHT22;8808;52.478;13.378;2023-07-31T00:23:52;15.80;99.90
17381;DHT22;8808;52.478;13.378;2023-07-31T00:26:20;15.80;99.90
17381;DHT22;8808;52.478;13.378;2023-07-31T00:28:47;15.90;99.90
17381;DHT22;8808;52.478;13.378;2023-07-31T00:31:14;15.90;99.90
17381;DHT22;8808;52.478;13.378;2023-07-31T00:33:41;15.90;99.90
17381;DHT22;8808;52.478;13.378;2023-07-31T00:36:09;15.90;99.90
17381;DHT22;8808;52.478;13.378;2023-07-31T00:38:36;15.90;99.90
17381;DHT22;8808;52.478;13.378;2023-07-31T00:41:02;15.90;99.90
17381;DHT22;8808;52.478;13.378;2023-07-31T00:43:31;15.90;99.90
17381;DHT22;8808;52.478;13.378;2023-07-31T00:45:58;15.80;99.90
17381;DHT22;8808;52.478;13.378;2023-07-31T00:48:25;15.80;99.90
17381;DHT22;8808;52.478;13.378;2023-07-31T00:50:52;15.70;99.90
17381;DHT22;8808;52.478;13.378;2023-07-31T00:53:20;15.60;99.90
17381;DHT22;8808;52.478;13.378;2023-07-31T00:55:47;15.60;99.90
17381;DHT22;8808;52.478;13.378;2023-07-31T00:58:14;15.70;99.90
17381;DHT22;8808;52.478;13.378;2023-07-31T01:03:19;15.70;99.90
17381;DHT22;8808;52.478;13.378;2023-07-31T01:05:52;15.70;99.90
17381;DHT22;8808;52.478;13.378;2023-07-31T01:08:27;15.90;99.90
17381;DHT22;8808;52.478;13.378;2023-07-31T01:10:59;15.90;99.90
17381;DHT22;8808;52.478;13.378;2023-07-31T01:13:28;16.00;99.90
17381;DHT22;8808;52.478;13.378;2023-07-31T01:15:55;16.00;99.90
17381;DHT22;8808;52.478;13.378;2023-07-31T01:18:23;16.00;99.90
17381;DHT22;8808;52.478;13.378;2023-07-31T01:20:55;16.00;99.90
17381;DHT22;8808;52.478;13.378;2023-07-31T01:23:51;16.00;99.90
17381;DHT22;8808;52.478;13.378;2023-07-31T01:26:28;16.00;99.90
17381;DHT22;8808;52.478;13.378;2023-07-31T01:29:00;16.00;99.90
17381;DHT22;8808;52.478;13.378;2023-07-31T01:31:29;15.90;99.90
17381;DHT22;8808;52.478;13.378;2023-07-31T01:34:00;15.90;99.90
17381;DHT22;8808;52.478;13.378;2023-07-31T01:36:28;15.90;99.90
17381;DHT22;8808;52.478;13.378;2023-07-31T01:38:58;15.70;99.90
17381;DHT22;8808;52.478;13.378;2023-07-31T01:41:27;15.80;99.90
17381;DHT22;8808;52.478;13.378;2023-07-31T01:43:54;15.90;99.90
17381;DHT22;8808;52.478;13.378;2023-07-31T01:46:21;15.70;99.90
17381;DHT22;8808;52.478;13.378;2023-07-31T01:48:48;15.70;99.90
17381;DHT22;8808;52.478;13.378;2023-07-31T01:51:15;15.70;99.90
17381;DHT22;8808;52.478;13.378;2023-07-31T01:53:42;15.80;99.90
17381;DHT22;8808;52.478;13.378;2023-07-31T01:56:09;15.70;99.90
17381;DHT22;8808;52.478;13.378;2023-07-31T01:58:37;15.70;99.90
17381;DHT22;8808;52.478;13.378;2023-07-31T02:01:04;15.70;99.90
17381;DHT22;8808;52.478;13.378;2023-07-31T02:03:31;15.70;99.90
17381;DHT22;8808;52.478;13.378;2023-07-31T02:05:58;15.80;99.90
17381;DHT22;8808;52.478;13.378;2023-07-31T02:08:25;15.90;99.90
17381;DHT22;8808;52.478;13.378;2023-07-31T02:10:53;16.00;99.90
17381;DHT22;8808;52.478;13.378;2023-07-31T02:13:20;15.80;99.90
17381;DHT22;8808;52.478;13.378;2023-07-31T02:15:48;15.80;99.90
17381;DHT22;8808;52.478;13.378;2023-07-31T02:18:16;15.90;99.90
17381;DHT22;8808;52.478;13.378;2023-07-31T02:20:43;15.80;99.90
17381;DHT22;8808;52.478;13.378;2023-07-31T02:23:11;15.90;99.90
17381;DHT22;8808;52.478;13.378;2023-07-31T02:25:38;15.80;99.90
17381;DHT22;8808;52.478;13.378;2023-07-31T02:28:05;15.70;99.90
17381;DHT22;8808;52.478;13.378;2023-07-31T02:30:32;15.70;99.90
17381;DHT22;8808;52.478;13.378;2023-07-31T02:33:00;15.80;99.90
17381;DHT22;8808;52.478;13.378;2023-07-31T02:35:27;15.80;99.90
17381;DHT22;8808;52.478;13.378;2023-07-31T02:37:54;15.80;99.90
17381;DHT22;8808;52.478;13.378;2023-07-31T02:40:21;15.90;99.90
17381;DHT22;8808;52.478;13.378;2023-07-31T02:42:48;15.90;99.90
17381;DHT22;8808;52.478;13.378;2023-07-31T02:45:15;15.90;99.90
17381;DHT22;8808;52.478;13.378;2023-07-31T02:47:42;15.80;99.90
17381;DHT22;8808;52.478;13.378;2023-07-31T02:50:11;15.90;99.90
17381;DHT22;8808;52.478;13.378;2023-07-31T02:52:38;15.80;99.90
17381;DHT22;8808;52.478;13.378;2023-07-31T02:55:06;15.90;99.90
17381;DHT22;8808;52.478;13.378;2023-07-31T02:57:33;15.90;99.90
17381;DHT22;8808;52.478;13.378;2023-07-31T03:00:00;15.80;99.90
17381;DHT22;8808;52.478;13.378;2023-07-31T03:02:28;16.00;99.90
17381;DHT22;8808;52.478;13.378;2023-07-31T03:04:55;16.00;99.90
17381;DHT22;8808;52.478;13.378;2023-07-31T03:07:23;16.00;99.90
17381;DHT22;8808;52.478;13.378;2023-07-31T03:09:50;16.10;99.90
17381;DHT22;8808;52.478;13.378;2023-07-31T03:12:17;16.10;99.90
17381;DHT22;8808;52.478;13.378;2023-07-31T03:14:45;16.10;99.90
17381;DHT22;8808;52.478;13.378;2023-07-31T03:17:12;16.10;99.90
17381;DHT22;8808;52.478;13.378;2023-07-31T03:19:39;16.00;99.90
17381;DHT22;8808;52.478;13.378;2023-07-31T03:22:06;16.10;99.90
17381;DHT22;8808;52.478;13.378;2023-07-31T03:24:34;16.00;99.90
17381;DHT22;8808;52.478;13.378;2023-07-31T03:27:01;16.00;99.90
17381;DHT22;8808;52.478;13.378;2023-07-31T03:29:28;16.00;99.90
17381;DHT22;8808;52.478;13.378;2023-07-31T03:31:55;16.00;99.90
17381;DHT22;8808;52.478;13.378;2023-07-31T03:34:22;16.10;99.90
17381;DHT22;8808;52.478;13.378;2023-07-31T03:36:49;16.00;99.90
17381;DHT22;8808;52.478;13.378;2023-07-31T03:39:16;16.00;99.90
17381;DHT22;8808;52.478;13.378;2023-07-31T03:41:44;16.00;99.90
17381;DHT22;8808;52.478;13.378;2023-07-31T03:44:11;16.00;99.90
17381;DHT22;8808;52.478;13.378;2023-07-31T03:46:38;16.10;99.90
17381;DHT22;8808;52.478;13.378;2023-07-31T03:49:05;16.10;99.90
17381;DHT22;8808;52.478;13.378;2023-07-31T03:51:32;16.00;99.90
17381;DHT22;8808;52.478;13.378;2023-07-31T03:53:59;15.90;99.90
17381;DHT22;8808;52.478;13.378;2023-07-31T03:56:26;15.90;99.90
17381;DHT22;8808;52.478;13.378;2023-07-31T03:58:54;15.90;99.90
17381;DHT22;8808;52.478;13.378;2023-07-31T04:01:21;15.90;99.90
17381;DHT22;8808;52.478;13.378;2023-07-31T04:03:48;16.00;99.90
17381;DHT22;8808;52.478;13.378;2023-07-31T04:06:15;16.00;99.90
17381;DHT22;8808;52.478;13.378;2023-07-31T04:08:43;16.00;99.90
17381;DHT22;8808;52.478;13.378;2023-07-31T04:11:10;16.00;99.90
17381;DHT22;8808;52.478;13.378;2023-07-31T04:13:38;16.00;99.90
17381;DHT22;8808;52.478;13.378;2023-07-31T04:16:06;16.10;99.90
17381;DHT22;8808;52.478;13.378;2023-07-31T04:18:33;16.10;99.90
17381;DHT22;8808;52.478;13.378;2023-07-31T04:21:00;16.10;99.90
17381;DHT22;8808;52.478;13.378;2023-07-31T04:23:28;16.10;99.90
17381;DHT22;8808;52.478;13.378;2023-07-31T04:25:55;16.20;99.90
17381;DHT22;8808;52.478;13.378;2023-07-31T04:28:22;16.20;99.90
17381;DHT22;8808;52.478;13.378;2023-07-31T04:30:49;16.20;99.90
17381;DHT22;8808;52.478;13.378;2023-07-31T04:33:17;16.20;99.90
17381;DHT22;8808;52.478;13.378;2023-07-31T04:35:49;16.20;99.90
17381;DHT22;8808;52.478;13.378;2023-07-31T04:38:18;16.20;99.90
17381;DHT22;8808;52.478;13.378;2023-07-31T04:40:45;16.20;99.90
17381;DHT22;8808;52.478;13.378;2023-07-31T04:43:12;16.20;99.90
17381;DHT22;8808;52.478;13.378;2023-07-31T04:45:39;16.20;99.90
17381;DHT22;8808;52.478;13.378;2023-07-31T04:48:07;16.20;99.90
17381;DHT22;8808;52.478;13.378;2023-07-31T04:50:35;16.10;99.90
17381;DHT22;8808;52.478;13.378;2023-07-31T04:53:02;16.20;99.90
17381;DHT22;8808;52.478;13.378;2023-07-31T04:55:29;16.20;99.90
17381;DHT22;8808;52.478;13.378;2023-07-31T04:57:58;16.10;99.90
17381;DHT22;8808;52.478;13.378;2023-07-31T05:00:25;16.20;99.90
17381;DHT22;8808;52.478;13.378;2023-07-31T05:02:52;16.10;99.90
17381;DHT22;8808;52.478;13.378;2023-07-31T05:05:19;16.20;99.90
17381;DHT22;8808;52.478;13.378;2023-07-31T05:07:47;16.20;99.90
17381;DHT22;8808;52.478;13.378;2023-07-31T05:10:14;16.20;99.90
17381;DHT22;8808;52.478;13.378;2023-07-31T05:12:41;16.20;99.90
17381;DHT22;8808;52.478;13.378;2023-07-31T05:15:09;16.20;99.90
17381;DHT22;8808;52.478;13.378;2023-07-31T05:17:36;16.30;99.90
17381;DHT22;8808;52.478;13.378;2023-07-31T05:20:03;16.30;99.90
17381;DHT22;8808;52.478;13.378;2023-07-31T05:22:30;16.30;99.90
17381;DHT22;8808;52.478;13.378;2023-07-31T05:24:58;16.40;99.90
17381;DHT22;8808;52.478;13.378;2023-07-31T05:27:25;16.40;99.90
17381;DHT22;8808;52.478;13.378;2023-07-31T05:29:52;16.40;99.90
17381;DHT22;8808;52.478;13.378;2023-07-31T05:32:19;16.30;99.90
17381;DHT22;8808;52.478;13.378;2023-07-31T05:34:50;16.30;99.90
17381;DHT22;8808;52.478;13.378;2023-07-31T05:37:17;16.30;99.90
17381;DHT22;8808;52.478;13.378;2023-07-31T05:39:44;16.40;99.90
17381;DHT22;8808;52.478;13.378;2023-07-31T05:42:12;16.40;99.90
17381;DHT22;8808;52.478;13.378;2023-07-31T05:44:39;16.40;99.90
17381;DHT22;8808;52.478;13.378;2023-07-31T05:47:06;16.40;99.90
17381;DHT22;8808;52.478;13.378;2023-07-31T05:49:33;16.40;99.90
17381;DHT22;8808;52.478;13.378;2023-07-31T05:52:00;16.50;99.90
17381;DHT22;8808;52.478;13.378;2023-07-31T05:54:27;16.40;99.90
17381;DHT22;8808;52.478;13.378;2023-07-31T05:56:54;16.40;99.90
17381;DHT22;8808;52.478;13.378;2023-07-31T05:59:22;16.40;99.90
17381;DHT22;8808;52.478;13.378;2023-07-31T06:01:49;16.50;99.90
17381;DHT22;8808;52.478;13.378;2023-07-31T06:04:16;16.50;99.90
17381;DHT22;8808;52.478;13.378;2023-07-31T06:06:43;16.50;99.90
17381;DHT22;8808;52.478;13.378;2023-07-31T06:09:10;16.60;99.90
17381;DHT22;8808;52.478;13.378;2023-07-31T06:11:37;16.50;99.90
17381;DHT22;8808;52.478;13.378;2023-07-31T06:14:04;16.50;99.90
17381;DHT22;8808;52.478;13.378;2023-07-31T06:16:32;16.50;99.90
17381;DHT22;8808;52.478;13.378;2023-07-31T06:18:59;16.60;99.90
17381;DHT22;8808;52.478;13.378;2023-07-31T06:21:26;16.60;99.90
17381;DHT22;8808;52.478;13.378;2023-07-31T06:23:53;16.60;99.90
17381;DHT22;8808;52.478;13.378;2023-07-31T06:26:20;16.60;99.90
17381;DHT22;8808;52.478;13.378;2023-07-31T06:28:47;16.60;99.90
17381;DHT22;8808;52.478;13.378;2023-07-31T06:31:14;16.70;99.90
17381;DHT22;8808;52.478;13.378;2023-07-31T06:33:42;16.70;99.90
17381;DHT22;8808;52.478;13.378;2023-07-31T06:36:09;16.70;99.90
17381;DHT22;8808;52.478;13.378;2023-07-31T06:38:36;16.70;99.90
17381;DHT22;8808;52.478;13.378;2023-07-31T06:41:03;16.80;99.90
17381;DHT22;8808;52.478;13.378;2023-07-31T06:43:30;16.80;99.90
17381;DHT22;8808;52.478;13.378;2023-07-31T06:45:59;16.80;99.90
17381;DHT22;8808;52.478;13.378;2023-07-31T06:48:30;16.80;99.90
17381;DHT22;8808;52.478;13.378;2023-07-31T06:50:59;16.80;99.90
17381;DHT22;8808;52.478;13.378;2023-07-31T06:53:26;16.90;99.90
17381;DHT22;8808;52.478;13.378;2023-07-31T06:55:53;16.80;99.90
17381;DHT22;8808;52.478;13.378;2023-07-31T06:58:20;16.80;99.90
17381;DHT22;8808;52.478;13.378;2023-07-31T07:00:47;16.90;99.90
17381;DHT22;8808;52.478;13.378;2023-07-31T07:03:15;16.80;99.90
17381;DHT22;8808;52.478;13.378;2023-07-31T07:05:42;17.00;99.90
17381;DHT22;8808;52.478;13.378;2023-07-31T07:08:10;16.90;99.90
17381;DHT22;8808;52.478;13.378;2023-07-31T07:10:37;16.80;99.90
17381;DHT22;8808;52.478;13.378;2023-07-31T07:13:05;16.80;99.90
17381;DHT22;8808;52.478;13.378;2023-07-31T07:15:31;16.80;99.90
17381;DHT22;8808;52.478;13.378;2023-07-31T07:17:58;16.80;99.90
17381;DHT22;8808;52.478;13.378;2023-07-31T07:20:25;16.80;99.90
17381;DHT22;8808;52.478;13.378;2023-07-31T07:22:52;16.80;99.90
17381;DHT22;8808;52.478;13.378;2023-07-31T07:25:21;16.80;99.90
17381;DHT22;8808;52.478;13.378;2023-07-31T07:27:48;16.80;99.90
17381;DHT22;8808;52.478;13.378;2023-07-31T07:30:15;16.90;99.90
17381;DHT22;8808;52.478;13.378;2023-07-31T07:32:43;16.90;99.90
17381;DHT22;8808;52.478;13.378;2023-07-31T07:35:10;16.90;99.90
17381;DHT22;8808;52.478;13.378;2023-07-31T07:37:37;16.90;99.90
17381;DHT22;8808;52.478;13.378;2023-07-31T07:40:04;17.00;99.90
17381;DHT22;8808;52.478;13.378;2023-07-31T07:42:33;17.10;99.90
17381;DHT22;8808;52.478;13.378;2023-07-31T07:45:00;17.10;99.90
17381;DHT22;8808;52.478;13.378;2023-07-31T07:47:27;17.10;99.90
17381;DHT22;8808;52.478;13.378;2023-07-31T07:49:54;17.20;99.90
17381;DHT22;8808;52.478;13.378;2023-07-31T07:52:21;17.30;99.90
17381;DHT22;8808;52.478;13.378;2023-07-31T07:54:48;17.30;99.90
17381;DHT22;8808;52.478;13.378;2023-07-31T07:57:15;17.20;99.90
17381;DHT22;8808;52.478;13.378;2023-07-31T07:59:44;17.30;99.90
17381;DHT22;8808;52.478;13.378;2023-07-31T08:02:11;17.20;99.90
17381;DHT22;8808;52.478;13.378;2023-07-31T08:04:37;17.20;99.90
17381;DHT22;8808;52.478;13.378;2023-07-31T08:07:04;17.20;99.90
17381;DHT22;8808;52.478;13.378;2023-07-31T08:09:32;17.10;99.90
17381;DHT22;8808;52.478;13.378;2023-07-31T08:11:58;17.10;99.90
17381;DHT22;8808;52.478;13.378;2023-07-31T08:14:28;17.10;99.90
17381;DHT22;8808;52.478;13.378;2023-07-31T08:16:56;17.10;99.90
17381;DHT22;8808;52.478;13.378;2023-07-31T08:19:23;17.10;99.90
17381;DHT22;8808;52.478;13.378;2023-07-31T08:21:50;17.00;99.90
17381;DHT22;8808;52.478;13.378;2023-07-31T08:24:17;17.10;99.90
17381;DHT22;8808;52.478;13.378;2023-07-31T08:26:44;17.10;99.90
17381;DHT22;8808;52.478;13.378;2023-07-31T08:29:11;17.10;99.90
17381;DHT22;8808;52.478;13.378;2023-07-31T08:31:38;17.10;99.90
17381;DHT22;8808;52.478;13.378;2023-07-31T08:34:06;17.20;99.90
17381;DHT22;8808;52.478;13.378;2023-07-31T08:36:33;17.30;99.90
17381;DHT22;8808;52.478;13.378;2023-07-31T08:39:00;17.40;99.90
17381;DHT22;8808;52.478;13.378;2023-07-31T08:41:27;17.30;99.90
17381;DHT22;8808;52.478;13.378;2023-07-31T08:43:55;17.30;99.90
17381;DHT22;8808;52.478;13.378;2023-07-31T08:46:23;17.30;99.90
17381;DHT22;8808;52.478;13.378;2023-07-31T08:48:51;17.20;99.90
17381;DHT22;8808;52.478;13.378;2023-07-31T08:51:20;17.30;99.90
17381;DHT22;8808;52.478;13.378;2023-07-31T08:53:47;17.40;99.90
17381;DHT22;8808;52.478;13.378;2023-07-31T08:56:15;17.40;99.90
17381;DHT22;8808;52.478;13.378;2023-07-31T08:58:43;17.40;99.90
17381;DHT22;8808;52.478;13.378;2023-07-31T09:01:10;17.60;99.90
17381;DHT22;8808;52.478;13.378;2023-07-31T09:03:39;17.60;99.90
17381;DHT22;8808;52.478;13.378;2023-07-31T09:06:07;17.60;99.90
17381;DHT22;8808;52.478;13.378;2023-07-31T09:08:38;17.70;99.90
17381;DHT22;8808;52.478;13.378;2023-07-31T09:11:07;17.80;99.90
17381;DHT22;8808;52.478;13.378;2023-07-31T09:13:34;17.90;99.90
17381;DHT22;8808;52.478;13.378;2023-07-31T09:16:01;17.90;99.90
17381;DHT22;8808;52.478;13.378;2023-07-31T09:18:28;17.80;99.90
17381;DHT22;8808;52.478;13.378;2023-07-31T09:21:02;17.90;99.90
17381;DHT22;8808;52.478;13.378;2023-07-31T09:23:42;17.80;99.90
17381;DHT22;8808;52.478;13.378;2023-07-31T09:26:09;17.70;99.90
17381;DHT22;8808;52.478;13.378;2023-07-31T09:28:36;17.70;99.90
17381;DHT22;8808;52.478;13.378;2023-07-31T09:31:03;17.70;99.90
17381;DHT22;8808;52.478;13.378;2023-07-31T09:33:30;17.50;99.90
17381;DHT22;8808;52.478;13.378;2023-07-31T09:35:59;17.50;99.90
17381;DHT22;8808;52.478;13.378;2023-07-31T09:38:27;17.50;99.90
17381;DHT22;8808;52.478;13.378;2023-07-31T09:40:58;17.40;99.90
17381;DHT22;8808;52.478;13.378;2023-07-31T09:43:26;17.40;99.90
17381;DHT22;8808;52.478;13.378;2023-07-31T09:45:55;17.40;99.90
17381;DHT22;8808;52.478;13.378;2023-07-31T09:48:24;17.50;99.90
17381;DHT22;8808;52.478;13.378;2023-07-31T09:50:53;17.40;99.90
17381;DHT22;8808;52.478;13.378;2023-07-31T09:53:28;17.50;99.90
17381;DHT22;8808;52.478;13.378;2023-07-31T09:55:58;17.50;99.90
17381;DHT22;8808;52.478;13.378;2023-07-31T09:58:25;17.60;99.90
17381;DHT22;8808;52.478;13.378;2023-07-31T10:00:55;17.50;99.90
17381;DHT22;8808;52.478;13.378;2023-07-31T10:03:24;17.60;99.90
17381;DHT22;8808;52.478;13.378;2023-07-31T10:05:53;17.60;99.90
17381;DHT22;8808;52.478;13.378;2023-07-31T10:08:28;17.70;99.90
17381;DHT22;8808;52.478;13.378;2023-07-31T10:10:59;17.60;99.90
17381;DHT22;8808;52.478;13.378;2023-07-31T10:13:30;17.80;99.90
17381;DHT22;8808;52.478;13.378;2023-07-31T10:15:59;17.80;99.90
17381;DHT22;8808;52.478;13.378;2023-07-31T10:18:27;17.90;99.90
17381;DHT22;8808;52.478;13.378;2023-07-31T10:20:55;17.80;99.90
17381;DHT22;8808;52.478;13.378;2023-07-31T10:23:23;17.80;99.90
17381;DHT22;8808;52.478;13.378;2023-07-31T10:25:53;17.90;99.90
17381;DHT22;8808;52.478;13.378;2023-07-31T10:28:22;17.90;99.90
17381;DHT22;8808;52.478;13.378;2023-07-31T10:30:50;17.90;99.90
17381;DHT22;8808;52.478;13.378;2023-07-31T10:33:19;18.00;99.90
17381;DHT22;8808;52.478;13.378;2023-07-31T10:35:47;18.10;99.90
17381;DHT22;8808;52.478;13.378;2023-07-31T10:38:14;18.10;99.90
17381;DHT22;8808;52.478;13.378;2023-07-31T10:40:42;18.20;99.90
17381;DHT22;8808;52.478;13.378;2023-07-31T10:43:25;18.40;99.90
17381;DHT22;8808;52.478;13.378;2023-07-31T10:45:53;18.40;99.90
17381;DHT22;8808;52.478;13.378;2023-07-31T10:48:20;18.70;99.90
17381;DHT22;8808;52.478;13.378;2023-07-31T10:50:49;19.00;99.90
17381;DHT22;8808;52.478;13.378;2023-07-31T10:53:23;19.10;99.90
17381;DHT22;8808;52.478;13.378;2023-07-31T10:55:50;19.30;99.90
17381;DHT22;8808;52.478;13.378;2023-07-31T10:58:19;19.30;99.90
17381;DHT22;8808;52.478;13.378;2023-07-31T11:00:47;19.40;99.90
17381;DHT22;8808;52.478;13.378;2023-07-31T11:03:15;19.40;99.90
17381;DHT22;8808;52.478;13.378;2023-07-31T11:05:50;19.60;99.90
17381;DHT22;8808;52.478;13.378;2023-07-31T11:08:20;19.80;99.90
17381;DHT22;8808;52.478;13.378;2023-07-31T11:10:49;20.00;99.90
17381;DHT22;8808;52.478;13.378;2023-07-31T11:13:17;20.00;99.90
17381;DHT22;8808;52.478;13.378;2023-07-31T11:15:44;20.10;99.90
17381;DHT22;8808;52.478;13.378;2023-07-31T11:18:12;20.00;99.90
17381;DHT22;8808;52.478;13.378;2023-07-31T11:20:39;20.10;99.90
17381;DHT22;8808;52.478;13.378;2023-07-31T11:23:08;20.10;99.90
17381;DHT22;8808;52.478;13.378;2023-07-31T11:25:36;20.20;99.90
17381;DHT22;8808;52.478;13.378;2023-07-31T11:28:04;20.20;99.90
17381;DHT22;8808;52.478;13.378;2023-07-31T11:30:31;20.10;99.90
17381;DHT22;8808;52.478;13.378;2023-07-31T11:33:00;20.00;99.90
17381;DHT22;8808;52.478;13.378;2023-07-31T11:35:31;20.00;99.90
17381;DHT22;8808;52.478;13.378;2023-07-31T11:37:58;20.00;99.90
17381;DHT22;8808;52.478;13.378;2023-07-31T11:40:25;20.10;99.90
17381;DHT22;8808;52.478;13.378;2023-07-31T11:42:56;20.10;99.90
17381;DHT22;8808;52.478;13.378;2023-07-31T11:45:24;20.00;99.90
17381;DHT22;8808;52.478;13.378;2023-07-31T11:47:52;20.00;99.90
17381;DHT22;8808;52.478;13.378;2023-07-31T11:50:19;20.00;99.90
17381;DHT22;8808;52.478;13.378;2023-07-31T11:52:48;20.00;99.90
17381;DHT22;8808;52.478;13.378;2023-07-31T11:55:16;19.90;99.90
17381;DHT22;8808;52.478;13.378;2023-07-31T11:57:45;19.90;99.90
17381;DHT22;8808;52.478;13.378;2023-07-31T12:00:13;19.90;99.90
17381;DHT22;8808;52.478;13.378;2023-07-31T12:02:41;19.80;99.90
17381;DHT22;8808;52.478;13.378;2023-07-31T12:05:11;19.90;99.90
17381;DHT22;8808;52.478;13.378;2023-07-31T12:07:53;19.80;99.90
17381;DHT22;8808;52.478;13.378;2023-07-31T12:10:28;19.90;99.90
17381;DHT22;8808;52.478;13.378;2023-07-31T12:13:00;20.00;99.90
17381;DHT22;8808;52.478;13.378;2023-07-31T12:15:33;20.10;99.90
17381;DHT22;8808;52.478;13.378;2023-07-31T12:18:04;20.10;99.90
17381;DHT22;8808;52.478;13.378;2023-07-31T12:20:32;20.30;99.90
17381;DHT22;8808;52.478;13.378;2023-07-31T12:23:01;20.20;99.90
17381;DHT22;8808;52.478;13.378;2023-07-31T12:25:32;20.30;99.90
17381;DHT22;8808;52.478;13.378;2023-07-31T12:28:05;20.30;99.90
17381;DHT22;8808;52.478;13.378;2023-07-31T12:30:34;20.30;99.90
17381;DHT22;8808;52.478;13.378;2023-07-31T12:33:04;20.40;99.90
17381;DHT22;8808;52.478;13.378;2023-07-31T12:35:36;20.30;99.90
17381;DHT22;8808;52.478;13.378;2023-07-31T12:38:04;20.30;99.90
17381;DHT22;8808;52.478;13.378;2023-07-31T12:40:32;20.30;99.90
17381;DHT22;8808;52.478;13.378;2023-07-31T12:43:01;20.40;99.90
17381;DHT22;8808;52.478;13.378;2023-07-31T12:45:29;20.30;99.90
17381;DHT22;8808;52.478;13.378;2023-07-31T12:47:56;20.40;99.90
17381;DHT22;8808;52.478;13.378;2023-07-31T12:50:23;20.50;99.90
17381;DHT22;8808;52.478;13.378;2023-07-31T12:52:51;20.60;99.90
17381;DHT22;8808;52.478;13.378;2023-07-31T12:55:19;20.50;99.90
17381;DHT22;8808;52.478;13.378;2023-07-31T12:57:46;20.40;99.90
17381;DHT22;8808;52.478;13.378;2023-07-31T13:00:14;20.30;99.90
17381;DHT22;8808;52.478;13.378;2023-07-31T13:02:41;20.40;99.90
17381;DHT22;8808;52.478;13.378;2023-07-31T13:05:08;20.30;99.90
17381;DHT22;8808;52.478;13.378;2023-07-31T13:07:35;20.40;99.90
17381;DHT22;8808;52.478;13.378;2023-07-31T13:10:03;20.50;99.90
17381;DHT22;8808;52.478;13.378;2023-07-31T13:12:31;20.40;99.90
17381;DHT22;8808;52.478;13.378;2023-07-31T13:14:58;20.40;99.90
17381;DHT22;8808;52.478;13.378;2023-07-31T13:17:25;20.40;99.90
17381;DHT22;8808;52.478;13.378;2023-07-31T13:19:53;20.40;99.90
17381;DHT22;8808;52.478;13.378;2023-07-31T13:22:19;20.50;99.90
17381;DHT22;8808;52.478;13.378;2023-07-31T13:24:46;20.40;99.90
17381;DHT22;8808;52.478;13.378;2023-07-31T13:27:13;20.30;99.90
17381;DHT22;8808;52.478;13.378;2023-07-31T13:29:43;20.30;99.90
17381;DHT22;8808;52.478;13.378;2023-07-31T13:32:10;20.30;99.90
17381;DHT22;8808;52.478;13.378;2023-07-31T13:34:37;20.30;99.90
17381;DHT22;8808;52.478;13.378;2023-07-31T13:37:05;20.40;99.90
17381;DHT22;8808;52.478;13.378;2023-07-31T13:39:32;20.60;99.90
17381;DHT22;8808;52.478;13.378;2023-07-31T13:41:59;20.70;99.90
17381;DHT22;8808;52.478;13.378;2023-07-31T13:44:26;20.70;99.90
17381;DHT22;8808;52.478;13.378;2023-07-31T13:46:55;20.70;99.90
17381;DHT22;8808;52.478;13.378;2023-07-31T13:49:22;20.80;99.90
17381;DHT22;8808;52.478;13.378;2023-07-31T13:51:49;20.90;99.90
17381;DHT22;8808;52.478;13.378;2023-07-31T13:54:16;20.90;99.90
17381;DHT22;8808;52.478;13.378;2023-07-31T13:56:44;20.90;99.90
17381;DHT22;8808;52.478;13.378;2023-07-31T13:59:11;20.90;99.90
17381;DHT22;8808;52.478;13.378;2023-07-31T14:01:40;20.80;99.90
17381;DHT22;8808;52.478;13.378;2023-07-31T14:04:09;20.80;99.90
17381;DHT22;8808;52.478;13.378;2023-07-31T14:06:36;20.90;99.90
17381;DHT22;8808;52.478;13.378;2023-07-31T14:09:03;20.80;99.90
17381;DHT22;8808;52.478;13.378;2023-07-31T14:11:31;20.90;99.90
17381;DHT22;8808;52.478;13.378;2023-07-31T14:13:58;20.90;99.90
17381;DHT22;8808;52.478;13.378;2023-07-31T14:16:25;21.00;99.90
17381;DHT22;8808;52.478;13.378;2023-07-31T14:18:52;21.00;99.90
17381;DHT22;8808;52.478;13.378;2023-07-31T14:21:21;21.00;99.90
17381;DHT22;8808;52.478;13.378;2023-07-31T14:23:48;21.00;99.90
17381;DHT22;8808;52.478;13.378;2023-07-31T14:26:15;21.00;99.90
17381;DHT22;8808;52.478;13.378;2023-07-31T14:28:42;20.80;99.90
17381;DHT22;8808;52.478;13.378;2023-07-31T14:31:09;20.80;99.90
17381;DHT22;8808;52.478;13.378;2023-07-31T14:33:36;20.90;99.90
17381;DHT22;8808;52.478;13.378;2023-07-31T14:36:03;21.00;99.90
17381;DHT22;8808;52.478;13.378;2023-07-31T14:38:31;21.00;99.90
17381;DHT22;8808;52.478;13.378;2023-07-31T14:40:59;21.10;99.90
17381;DHT22;8808;52.478;13.378;2023-07-31T14:43:26;21.00;99.90
17381;DHT22;8808;52.478;13.378;2023-07-31T14:45:53;21.10;99.90
17381;DHT22;8808;52.478;13.378;2023-07-31T14:48:21;21.10;99.90
17381;DHT22;8808;52.478;13.378;2023-07-31T14:50:48;21.10;99.90
17381;DHT22;8808;52.478;13.378;2023-07-31T14:53:15;21.10;99.90
17381;DHT22;8808;52.478;13.378;2023-07-31T14:55:43;21.20;99.90
17381;DHT22;8808;52.478;13.378;2023-07-31T14:58:10;21.10;99.90
17381;DHT22;8808;52.478;13.378;2023-07-31T15:00:39;21.00;99.90
17381;DHT22;8808;52.478;13.378;2023-07-31T15:03:06;21.00;99.90
17381;DHT22;8808;52.478;13.378;2023-07-31T15:05:33;21.00;99.90
17381;DHT22;8808;52.478;13.378;2023-07-31T15:08:00;21.00;99.90
17381;DHT22;8808;52.478;13.378;2023-07-31T15:10:27;20.90;99.90
17381;DHT22;8808;52.478;13.378;2023-07-31T15:12:55;20.90;99.90
17381;DHT22;8808;52.478;13.378;2023-07-31T15:15:22;20.90;99.90
17381;DHT22;8808;52.478;13.378;2023-07-31T15:17:49;21.00;99.90
17381;DHT22;8808;52.478;13.378;2023-07-31T15:20:16;20.90;99.90
17381;DHT22;8808;52.478;13.378;2023-07-31T15:22:43;20.80;99.90
17381;DHT22;8808;52.478;13.378;2023-07-31T15:25:10;20.80;99.90
17381;DHT22;8808;52.478;13.378;2023-07-31T15:27:37;20.80;99.90
17381;DHT22;8808;52.478;13.378;2023-07-31T15:30:07;20.80;99.90
17381;DHT22;8808;52.478;13.378;2023-07-31T15:32:34;20.90;99.90
17381;DHT22;8808;52.478;13.378;2023-07-31T15:35:04;20.70;99.90
17381;DHT22;8808;52.478;13.378;2023-07-31T15:37:31;20.70;99.90